sensor_id;sensor_type;location;lat;lon;timestamp;pressure;altitude;pressure_sealevel;temperature;humidity
58018;BME280;43810;50.860;19.226;2023-07-29T00:00:47;97982.41;;;16.44;100.00
58018;BME280;43810;50.860;19.226;2023-07-29T00:03:25;97987.00;;;16.43;100.00
58018;BME280;43810;50.860;19.226;2023-07-29T00:05:50;97989.66;;;16.40;100.00
58018;BME280;43810;50.860;19.226;2023-07-29T00:08:16;97986.22;;;16.43;100.00
58018;BME280;43810;50.860;19.226;2023-07-29T00:10:42;97991.94;;;16.38;100.00
58018;BME280;43810;50.860;19.226;2023-07-29T00:13:08;97978.94;;;16.33;100.00
58018;BME280;43810;50.860;19.226;2023-07-29T00:15:34;97988.50;;;16.34;100.00
58018;BME280;43810;50.860;19.226;2023-07-29T00:18:00;97990.00;;;16.28;100.00
58018;BME280;43810;50.860;19.226;2023-07-29T00:20:25;97994.97;;;16.26;100.00
58018;BME280;43810;50.860;19.226;2023-07-29T00:22:51;97987.72;;;16.23;100.00
58018;BME280;43810;50.860;19.226;2023-07-29T00:25:21;97987.31;;;16.20;100.00
58018;BME280;43810;50.860;19.226;2023-07-29T00:27:47;97983.84;;;16.13;100.00
58018;BME280;43810;50.860;19.226;2023-07-29T00:30:12;97993.41;;;16.14;100.00
58018;BME280;43810;50.860;19.226;2023-07-29T00:32:38;97987.69;;;16.19;100.00
58018;BME280;43810;50.860;19.226;2023-07-29T00:35:04;97984.63;;;16.24;100.00
58018;BME280;43810;50.860;19.226;2023-07-29T00:37:31;97987.72;;;16.23;100.00
58018;BME280;43810;50.860;19.226;2023-07-29T00:39:57;97993.81;;;16.23;100.00
58018;BME280;43810;50.860;19.226;2023-07-29T00:42:24;97989.63;;;16.26;100.00
58018;BME280;43810;50.860;19.226;2023-07-29T00:44:50;97983.50;;;16.29;100.00
58018;BME280;43810;50.860;19.226;2023-07-29T00:47:16;97993.81;;;16.16;100.00
58018;BME280;43810;50.860;19.226;2023-07-29T00:49:45;97993.03;;;16.08;100.00
58018;BME280;43810;50.860;19.226;2023-07-29T00:52:12;97991.50;;;16.11;100.00
58018;BME280;43810;50.860;19.226;2023-07-29T00:54:39;98001.44;;;16.07;100.00
58018;BME280;43810;50.860;19.226;2023-07-29T00:57:08;97995.34;;;16.10;100.00
58018;BME280;43810;50.860;19.226;2023-07-29T00:59:35;97994.56;;;16.13;100.00
58018;BME280;43810;50.860;19.226;2023-07-29T01:02:02;97992.25;;;16.11;100.00
58018;BME280;43810;50.860;19.226;2023-07-29T01:04:28;98002.22;;;16.11;100.00
58018;BME280;43810;50.860;19.226;2023-07-29T01:07:21;97999.53;;;16.07;100.00
58018;BME280;43810;50.860;19.226;2023-07-29T01:12:36;97998.34;;;15.98;100.00
58018;BME280;43810;50.860;19.226;2023-07-29T01:15:14;98001.41;;;15.96;100.00
58018;BME280;43810;50.860;19.226;2023-07-29T01:17:51;98006.75;;;15.96;100.00
58018;BME280;43810;50.860;19.226;2023-07-29T01:20:19;98008.28;;;15.94;100.00
58018;BME280;43810;50.860;19.226;2023-07-29T01:22:46;97993.34;;;15.93;100.00
58018;BME280;43810;50.860;19.226;2023-07-29T01:25:18;97996.81;;;15.97;100.00
58018;BME280;43810;50.860;19.226;2023-07-29T01:27:45;97992.63;;;15.99;100.00
58018;BME280;43810;50.860;19.226;2023-07-29T01:30:11;97996.41;;;15.95;100.00
58018;BME280;43810;50.860;19.226;2023-07-29T01:32:52;97997.94;;;15.96;100.00
58018;BME280;43810;50.860;19.226;2023-07-29T01:35:32;97990.28;;;15.91;100.00
58018;BME280;43810;50.860;19.226;2023-07-29T01:38:04;97989.13;;;15.92;100.00
58018;BME280;43810;50.860;19.226;2023-07-29T01:40:31;97986.81;;;15.87;100.00
58018;BME280;43810;50.860;19.226;2023-07-29T01:42:58;97991.41;;;15.90;100.00
58018;BME280;43810;50.860;19.226;2023-07-29T01:45:24;97991.41;;;15.90;100.00
58018;BME280;43810;50.860;19.226;2023-07-29T01:47:53;97991.41;;;15.90;100.00
58018;BME280;43810;50.860;19.226;2023-07-29T01:50:19;98001.75;;;15.84;100.00
58018;BME280;43810;50.860;19.226;2023-07-29T01:52:45;97997.50;;;15.79;100.00
58018;BME280;43810;50.860;19.226;2023-07-29T01:55:10;98001.31;;;15.78;100.00
58018;BME280;43810;50.860;19.226;2023-07-29T01:57:36;97996.72;;;15.75;100.00
58018;BME280;43810;50.860;19.226;2023-07-29T02:00:02;97998.59;;;15.68;100.00
58018;BME280;43810;50.860;19.226;2023-07-29T02:02:29;98006.25;;;15.69;100.00
58018;BME280;43810;50.860;19.226;2023-07-29T02:04:55;98008.22;;;15.76;100.00
58018;BME280;43810;50.860;19.226;2023-07-29T02:07:21;98013.94;;;15.74;100.00
58018;BME280;43810;50.860;19.226;2023-07-29T02:09:47;98008.97;;;15.76;100.00
58018;BME280;43810;50.860;19.226;2023-07-29T02:12:13;98010.84;;;15.69;100.00
58018;BME280;43810;50.860;19.226;2023-07-29T02:14:38;98013.50;;;15.69;100.00
58018;BME280;43810;50.860;19.226;2023-07-29T02:17:04;98013.53;;;15.72;100.00
58018;BME280;43810;50.860;19.226;2023-07-29T02:19:30;98013.16;;;15.74;100.00
58018;BME280;43810;50.860;19.226;2023-07-29T02:21:56;98008.19;;;15.72;100.00
58018;BME280;43810;50.860;19.226;2023-07-29T02:24:21;98011.22;;;15.67;100.00
58018;BME280;43810;50.860;19.226;2023-07-29T02:26:47;98009.31;;;15.64;100.00
58018;BME280;43810;50.860;19.226;2023-07-29T02:29:13;98007.75;;;15.63;100.00
58018;BME280;43810;50.860;19.226;2023-07-29T02:31:39;98018.84;;;15.62;100.00
58018;BME280;43810;50.860;19.226;2023-07-29T02:34:05;98014.22;;;15.59;100.00
58018;BME280;43810;50.860;19.226;2023-07-29T02:36:31;98010.03;;;15.61;100.00
58018;BME280;43810;50.860;19.226;2023-07-29T02:38:56;98015.00;;;15.59;100.00
58018;BME280;43810;50.860;19.226;2023-07-29T02:41:22;98015.38;;;15.58;100.00
58018;BME280;43810;50.860;19.226;2023-07-29T02:43:49;98020.31;;;15.52;100.00
58018;BME280;43810;50.860;19.226;2023-07-29T02:46:15;98020.28;;;15.48;100.00
58018;BME280;43810;50.860;19.226;2023-07-29T02:48:42;98016.41;;;15.42;100.00
58018;BME280;43810;50.860;19.226;2023-07-29T02:51:08;98019.06;;;15.39;100.00
58018;BME280;43810;50.860;19.226;2023-07-29T02:53:33;98029.34;;;15.33;100.00
58018;BME280;43810;50.860;19.226;2023-07-29T02:56:03;98027.47;;;15.37;100.00
58018;BME280;43810;50.860;19.226;2023-07-29T02:58:29;98022.81;;;15.31;100.00
58018;BME280;43810;50.860;19.226;2023-07-29T03:01:02;98027.78;;;15.32;100.00
58018;BME280;43810;50.860;19.226;2023-07-29T03:03:28;98018.59;;;15.26;100.00
58018;BME280;43810;50.860;19.226;2023-07-29T03:06:02;98033.06;;;15.22;100.00
58018;BME280;43810;50.860;19.226;2023-07-29T03:08:28;98028.09;;;15.17;100.00
58018;BME280;43810;50.860;19.226;2023-07-29T03:10:54;98027.66;;;15.11;100.00
58018;BME280;43810;50.860;19.226;2023-07-29T03:13:20;98027.25;;;15.09;100.00
58018;BME280;43810;50.860;19.226;2023-07-29T03:15:46;98038.34;;;15.07;100.00
58018;BME280;43810;50.860;19.226;2023-07-29T03:18:12;98037.22;;;15.12;100.00
58018;BME280;43810;50.860;19.226;2023-07-29T03:20:37;98044.88;;;15.13;100.00
58018;BME280;43810;50.860;19.226;2023-07-29T03:23:03;98038.75;;;15.13;100.00
58018;BME280;43810;50.860;19.226;2023-07-29T03:25:29;98045.28;;;15.16;100.00
58018;BME280;43810;50.860;19.226;2023-07-29T03:27:55;98047.59;;;15.21;100.00
58018;BME280;43810;50.860;19.226;2023-07-29T03:30:22;98036.91;;;15.24;100.00
58018;BME280;43810;50.860;19.226;2023-07-29T03:32:48;98053.41;;;15.30;100.00
58018;BME280;43810;50.860;19.226;2023-07-29T03:35:15;98045.03;;;15.35;100.00
58018;BME280;43810;50.860;19.226;2023-07-29T03:37:41;98046.25;;;15.41;100.00
58018;BME280;43810;50.860;19.226;2023-07-29T03:40:07;98059.66;;;15.44;100.00
58018;BME280;43810;50.860;19.226;2023-07-29T03:42:35;98050.88;;;15.47;100.00
58018;BME280;43810;50.860;19.226;2023-07-29T03:45:01;98051.31;;;15.53;100.00
58018;BME280;43810;50.860;19.226;2023-07-29T03:47:27;98052.44;;;15.56;100.00
58018;BME280;43810;50.860;19.226;2023-07-29T03:49:53;98044.03;;;15.57;100.00
58018;BME280;43810;50.860;19.226;2023-07-29T03:52:19;98047.94;;;15.63;100.00
58018;BME280;43810;50.860;19.226;2023-07-29T03:54:45;98051.00;;;15.69;100.00
58018;BME280;43810;50.860;19.226;2023-07-29T03:57:11;98052.16;;;15.71;100.00
58018;BME280;43810;50.860;19.226;2023-07-29T03:59:37;98051.44;;;15.78;100.00
58018;BME280;43810;50.860;19.226;2023-07-29T04:02:03;98055.34;;;15.88;100.00
58018;BME280;43810;50.860;19.226;2023-07-29T04:04:29;98052.69;;;15.98;100.00
58018;BME280;43810;50.860;19.226;2023-07-29T04:06:55;98055.09;;;16.21;100.00
58018;BME280;43810;50.860;19.226;2023-07-29T04:09:20;98065.13;;;16.49;100.00
58018;BME280;43810;50.860;19.226;2023-07-29T04:11:46;98057.16;;;16.81;100.00
58018;BME280;43810;50.860;19.226;2023-07-29T04:14:12;98055.31;;;17.13;100.00
58018;BME280;43810;50.860;19.226;2023-07-29T04:16:37;98058.34;;;17.47;100.00
58018;BME280;43810;50.860;19.226;2023-07-29T04:19:03;98057.19;;;17.66;100.00
58018;BME280;43810;50.860;19.226;2023-07-29T04:21:29;98058.69;;;17.78;100.00
58018;BME280;43810;50.860;19.226;2023-07-29T04:23:55;98060.63;;;17.67;100.00
58018;BME280;43810;50.860;19.226;2023-07-29T04:26:20;98064.47;;;17.62;100.00
58018;BME280;43810;50.860;19.226;2023-07-29T04:28:46;98068.69;;;17.63;100.00
58018;BME280;43810;50.860;19.226;2023-07-29T04:31:12;98069.84;;;17.69;100.00
58018;BME280;43810;50.860;19.226;2023-07-29T04:33:38;98066.38;;;17.76;100.00
58018;BME280;43810;50.860;19.226;2023-07-29T04:36:04;98067.09;;;17.94;100.00
58018;BME280;43810;50.860;19.226;2023-07-29T04:38:32;98070.47;;;18.16;100.00
58018;BME280;43810;50.860;19.226;2023-07-29T04:40:58;98072.75;;;18.28;100.00
58018;BME280;43810;50.860;19.226;2023-07-29T04:43:28;98066.16;;;18.32;98.45
58018;BME280;43810;50.860;19.226;2023-07-29T04:45:54;98069.25;;;18.34;98.25
58018;BME280;43810;50.860;19.226;2023-07-29T04:48:20;98073.03;;;18.44;97.25
58018;BME280;43810;50.860;19.226;2023-07-29T04:50:46;98065.72;;;18.48;96.47
58018;BME280;43810;50.860;19.226;2023-07-29T04:53:11;98073.34;;;18.57;96.28
58018;BME280;43810;50.860;19.226;2023-07-29T04:55:37;98067.94;;;18.71;95.76
58018;BME280;43810;50.860;19.226;2023-07-29T04:58:03;98076.41;;;18.69;95.29
58018;BME280;43810;50.860;19.226;2023-07-29T05:00:28;98083.31;;;18.70;95.16
58018;BME280;43810;50.860;19.226;2023-07-29T05:02:54;98076.69;;;18.82;95.65
58018;BME280;43810;50.860;19.226;2023-07-29T05:05:20;98089.16;;;19.17;95.19
58018;BME280;43810;50.860;19.226;2023-07-29T05:07:46;98080.09;;;19.45;93.83
58018;BME280;43810;50.860;19.226;2023-07-29T05:10:12;98085.50;;;19.83;94.04
58018;BME280;43810;50.860;19.226;2023-07-29T05:12:37;98094.25;;;19.94;90.64
58018;BME280;43810;50.860;19.226;2023-07-29T05:15:03;98091.53;;;19.97;90.05
58018;BME280;43810;50.860;19.226;2023-07-29T05:17:30;98098.88;;;19.93;90.14
58018;BME280;43810;50.860;19.226;2023-07-29T05:19:55;98098.38;;;20.05;90.16
58018;BME280;43810;50.860;19.226;2023-07-29T05:22:21;98099.47;;;20.11;89.34
58018;BME280;43810;50.860;19.226;2023-07-29T05:24:47;98087.25;;;20.34;89.78
58018;BME280;43810;50.860;19.226;2023-07-29T05:27:13;98094.63;;;20.30;88.83
58018;BME280;43810;50.860;19.226;2023-07-29T05:29:38;98094.19;;;20.35;88.23
58018;BME280;43810;50.860;19.226;2023-07-29T05:32:05;98105.69;;;20.39;88.30
58018;BME280;43810;50.860;19.226;2023-07-29T05:34:30;98098.69;;;20.45;87.96
58018;BME280;43810;50.860;19.226;2023-07-29T05:36:56;98110.50;;;20.58;87.74
58018;BME280;43810;50.860;19.226;2023-07-29T05:39:22;98111.13;;;20.69;86.24
58018;BME280;43810;50.860;19.226;2023-07-29T05:41:49;98108.53;;;20.89;85.33
58018;BME280;43810;50.860;19.226;2023-07-29T05:44:15;98121.44;;;21.05;85.45
58018;BME280;43810;50.860;19.226;2023-07-29T05:46:41;98112.91;;;21.06;84.68
58018;BME280;43810;50.860;19.226;2023-07-29T05:49:06;98110.22;;;21.06;85.80
58018;BME280;43810;50.860;19.226;2023-07-29T05:51:32;98124.78;;;21.12;84.91
58018;BME280;43810;50.860;19.226;2023-07-29T05:53:58;98115.63;;;21.06;84.27
58018;BME280;43810;50.860;19.226;2023-07-29T05:56:24;98115.91;;;21.12;84.20
58018;BME280;43810;50.860;19.226;2023-07-29T05:58:50;98116.16;;;21.21;85.06
58018;BME280;43810;50.860;19.226;2023-07-29T06:01:16;98118.97;;;21.41;84.26
58018;BME280;43810;50.860;19.226;2023-07-29T06:03:41;98118.03;;;21.51;82.95
58018;BME280;43810;50.860;19.226;2023-07-29T06:06:08;98119.25;;;21.70;82.71
58018;BME280;43810;50.860;19.226;2023-07-29T06:08:35;98121.09;;;21.96;80.12
58018;BME280;43810;50.860;19.226;2023-07-29T06:11:01;98114.94;;;22.15;80.54
58018;BME280;43810;50.860;19.226;2023-07-29T06:13:26;98110.84;;;22.47;78.18
58018;BME280;43810;50.860;19.226;2023-07-29T06:15:52;98115.16;;;22.64;76.69
58018;BME280;43810;50.860;19.226;2023-07-29T06:18:18;98114.16;;;22.74;78.41
58018;BME280;43810;50.860;19.226;2023-07-29T06:20:44;98116.22;;;22.86;77.96
58018;BME280;43810;50.860;19.226;2023-07-29T06:23:09;98120.84;;;23.06;75.19
58018;BME280;43810;50.860;19.226;2023-07-29T06:25:35;98117.56;;;23.30;75.52
58018;BME280;43810;50.860;19.226;2023-07-29T06:28:01;98133.81;;;23.47;76.67
58018;BME280;43810;50.860;19.226;2023-07-29T06:30:27;98128.72;;;23.65;74.53
58018;BME280;43810;50.860;19.226;2023-07-29T06:32:52;98126.75;;;23.65;72.60
58018;BME280;43810;50.860;19.226;2023-07-29T06:35:19;98131.34;;;23.52;74.66
58018;BME280;43810;50.860;19.226;2023-07-29T06:37:44;98134.16;;;23.49;74.37
58018;BME280;43810;50.860;19.226;2023-07-29T06:40:10;98133.63;;;23.70;74.49
58018;BME280;43810;50.860;19.226;2023-07-29T06:42:36;98131.78;;;23.83;74.10
58018;BME280;43810;50.860;19.226;2023-07-29T06:45:04;98124.81;;;24.11;74.31
58018;BME280;43810;50.860;19.226;2023-07-29T06:47:30;98121.59;;;24.16;73.84
58018;BME280;43810;50.860;19.226;2023-07-29T06:49:56;98127.88;;;24.42;72.24
58018;BME280;43810;50.860;19.226;2023-07-29T06:52:22;98120.22;;;24.66;70.09
58018;BME280;43810;50.860;19.226;2023-07-29T06:54:48;98120.66;;;24.77;69.58
58018;BME280;43810;50.860;19.226;2023-07-29T06:57:13;98121.63;;;24.70;71.56
58018;BME280;43810;50.860;19.226;2023-07-29T06:59:39;98119.38;;;24.94;70.03
58018;BME280;43810;50.860;19.226;2023-07-29T07:02:06;98121.75;;;24.92;68.83
58018;BME280;43810;50.860;19.226;2023-07-29T07:04:32;98123.06;;;25.00;69.27
58018;BME280;43810;50.860;19.226;2023-07-29T07:06:58;98124.38;;;25.21;70.74
58018;BME280;43810;50.860;19.226;2023-07-29T07:09:24;98121.78;;;25.30;66.64
58018;BME280;43810;50.860;19.226;2023-07-29T07:11:50;98115.88;;;25.44;68.78
58018;BME280;43810;50.860;19.226;2023-07-29T07:14:15;98125.09;;;25.47;64.38
58018;BME280;43810;50.860;19.226;2023-07-29T07:16:41;98116.50;;;25.48;66.64
58018;BME280;43810;50.860;19.226;2023-07-29T07:19:07;98117.56;;;25.64;64.35
58018;BME280;43810;50.860;19.226;2023-07-29T07:21:33;98124.69;;;25.83;63.50
58018;BME280;43810;50.860;19.226;2023-07-29T07:23:59;98117.34;;;25.58;64.00
58018;BME280;43810;50.860;19.226;2023-07-29T07:26:24;98116.63;;;25.92;62.40
58018;BME280;43810;50.860;19.226;2023-07-29T07:28:50;98120.50;;;26.04;65.19
58018;BME280;43810;50.860;19.226;2023-07-29T07:31:17;98104.84;;;26.39;61.35
58018;BME280;43810;50.860;19.226;2023-07-29T07:33:43;98116.59;;;26.48;60.87
58018;BME280;43810;50.860;19.226;2023-07-29T07:36:08;98112.09;;;26.33;59.26
58018;BME280;43810;50.860;19.226;2023-07-29T07:38:34;98102.31;;;26.44;60.70
58018;BME280;43810;50.860;19.226;2023-07-29T07:41:00;98104.16;;;26.47;60.62
58018;BME280;43810;50.860;19.226;2023-07-29T07:43:26;98105.72;;;26.57;60.37
58018;BME280;43810;50.860;19.226;2023-07-29T07:45:58;98105.25;;;26.81;59.80
58018;BME280;43810;50.860;19.226;2023-07-29T07:48:25;98102.56;;;26.90;59.87
58018;BME280;43810;50.860;19.226;2023-07-29T07:50:51;98105.28;;;26.90;58.05
58018;BME280;43810;50.860;19.226;2023-07-29T07:53:17;98105.50;;;26.74;60.49
58018;BME280;43810;50.860;19.226;2023-07-29T07:55:43;98101.53;;;26.96;60.14
58018;BME280;43810;50.860;19.226;2023-07-29T07:58:09;98110.00;;;27.29;57.61
58018;BME280;43810;50.860;19.226;2023-07-29T08:00:34;98101.06;;;27.29;57.23
58018;BME280;43810;50.860;19.226;2023-07-29T08:03:00;98101.16;;;27.16;57.88
58018;BME280;43810;50.860;19.226;2023-07-29T08:05:26;98096.19;;;27.33;58.55
58018;BME280;43810;50.860;19.226;2023-07-29T08:07:52;98103.50;;;27.45;55.77
58018;BME280;43810;50.860;19.226;2023-07-29T08:10:17;98096.41;;;27.66;58.63
58018;BME280;43810;50.860;19.226;2023-07-29T08:12:43;98098.81;;;27.91;57.25
58018;BME280;43810;50.860;19.226;2023-07-29T08:15:09;98096.44;;;28.02;56.11
58018;BME280;43810;50.860;19.226;2023-07-29T08:17:35;98097.75;;;27.89;55.43
58018;BME280;43810;50.860;19.226;2023-07-29T08:20:00;98090.34;;;27.89;56.03
58018;BME280;43810;50.860;19.226;2023-07-29T08:22:26;98089.16;;;27.99;53.32
58018;BME280;43810;50.860;19.226;2023-07-29T08:24:52;98084.44;;;27.82;55.35
58018;BME280;43810;50.860;19.226;2023-07-29T08:27:18;98085.50;;;27.84;56.09
58018;BME280;43810;50.860;19.226;2023-07-29T08:29:43;98086.25;;;28.03;55.05
58018;BME280;43810;50.860;19.226;2023-07-29T08:32:09;98086.06;;;28.25;54.06
58018;BME280;43810;50.860;19.226;2023-07-29T08:34:35;98080.59;;;28.43;54.98
58018;BME280;43810;50.860;19.226;2023-07-29T08:37:01;98077.47;;;28.78;53.73
58018;BME280;43810;50.860;19.226;2023-07-29T08:39:27;98072.41;;;28.34;56.05
58018;BME280;43810;50.860;19.226;2023-07-29T08:42:08;98074.53;;;28.30;54.71
58018;BME280;43810;50.860;19.226;2023-07-29T08:44:41;98066.78;;;28.37;56.61
58018;BME280;43810;50.860;19.226;2023-07-29T08:47:08;98070.44;;;28.34;55.99
58018;BME280;43810;50.860;19.226;2023-07-29T08:49:35;98073.25;;;28.67;51.77
58018;BME280;43810;50.860;19.226;2023-07-29T08:52:03;98065.78;;;28.77;51.99
58018;BME280;43810;50.860;19.226;2023-07-29T08:54:29;98066.97;;;29.09;52.65
58018;BME280;43810;50.860;19.226;2023-07-29T08:56:55;98061.56;;;29.00;52.07
58018;BME280;43810;50.860;19.226;2023-07-29T08:59:21;98061.19;;;29.07;50.92
58018;BME280;43810;50.860;19.226;2023-07-29T09:01:47;98062.06;;;29.22;50.16
58018;BME280;43810;50.860;19.226;2023-07-29T09:04:13;98063.31;;;29.12;52.71
58018;BME280;43810;50.860;19.226;2023-07-29T09:06:39;98064.28;;;29.00;54.01
58018;BME280;43810;50.860;19.226;2023-07-29T09:09:08;98069.06;;;29.23;51.73
58018;BME280;43810;50.860;19.226;2023-07-29T09:11:35;98066.94;;;29.18;51.96
58018;BME280;43810;50.860;19.226;2023-07-29T09:14:00;98064.56;;;29.59;52.77
58018;BME280;43810;50.860;19.226;2023-07-29T09:16:27;98059.91;;;29.89;47.57
58018;BME280;43810;50.860;19.226;2023-07-29T09:18:52;98065.91;;;30.16;51.13
58018;BME280;43810;50.860;19.226;2023-07-29T09:21:25;98047.38;;;30.56;47.58
58018;BME280;43810;50.860;19.226;2023-07-29T09:23:52;98048.69;;;30.60;47.00
58018;BME280;43810;50.860;19.226;2023-07-29T09:26:28;98048.69;;;30.45;50.71
58018;BME280;43810;50.860;19.226;2023-07-29T09:28:55;98054.34;;;29.59;49.98
58018;BME280;43810;50.860;19.226;2023-07-29T09:31:23;98040.50;;;29.39;48.82
58018;BME280;43810;50.860;19.226;2023-07-29T09:33:49;98050.69;;;29.38;48.40
58018;BME280;43810;50.860;19.226;2023-07-29T09:36:15;98044.75;;;29.40;50.21
58018;BME280;43810;50.860;19.226;2023-07-29T09:38:42;98045.16;;;29.48;52.19
58018;BME280;43810;50.860;19.226;2023-07-29T09:41:12;98035.63;;;28.53;52.75
58018;BME280;43810;50.860;19.226;2023-07-29T09:43:39;98046.59;;;28.86;54.13
58018;BME280;43810;50.860;19.226;2023-07-29T09:46:05;98044.56;;;28.63;52.76
58018;BME280;43810;50.860;19.226;2023-07-29T09:48:38;98051.94;;;28.81;51.35
58018;BME280;43810;50.860;19.226;2023-07-29T09:51:11;98040.34;;;29.19;46.51
58018;BME280;43810;50.860;19.226;2023-07-29T09:53:42;98033.09;;;29.54;49.33
58018;BME280;43810;50.860;19.226;2023-07-29T09:56:09;98030.38;;;30.07;47.37
58018;BME280;43810;50.860;19.226;2023-07-29T09:58:35;98030.56;;;30.48;47.26
58018;BME280;43810;50.860;19.226;2023-07-29T10:01:05;98022.75;;;30.76;44.56
58018;BME280;43810;50.860;19.226;2023-07-29T10:03:31;98024.53;;;31.14;45.48
58018;BME280;43810;50.860;19.226;2023-07-29T10:06:01;98011.66;;;31.20;44.88
58018;BME280;43810;50.860;19.226;2023-07-29T10:08:30;98008.47;;;31.07;46.66
58018;BME280;43810;50.860;19.226;2023-07-29T10:10:59;98015.94;;;31.27;44.90
58018;BME280;43810;50.860;19.226;2023-07-29T10:13:26;98000.22;;;30.86;45.35
58018;BME280;43810;50.860;19.226;2023-07-29T10:15:54;97997.25;;;30.90;46.46
58018;BME280;43810;50.860;19.226;2023-07-29T10:18:22;98007.66;;;31.21;44.75
58018;BME280;43810;50.860;19.226;2023-07-29T10:20:50;98001.25;;;31.50;41.76
58018;BME280;43810;50.860;19.226;2023-07-29T10:23:18;98005.88;;;30.98;40.80
58018;BME280;43810;50.860;19.226;2023-07-29T10:25:50;97999.09;;;30.78;46.14
58018;BME280;43810;50.860;19.226;2023-07-29T10:28:20;97996.59;;;30.60;43.69
58018;BME280;43810;50.860;19.226;2023-07-29T10:30:49;97989.91;;;30.32;44.16
58018;BME280;43810;50.860;19.226;2023-07-29T10:33:16;97991.25;;;30.51;45.29
58018;BME280;43810;50.860;19.226;2023-07-29T10:35:42;97995.19;;;30.65;43.25
58018;BME280;43810;50.860;19.226;2023-07-29T10:38:08;97990.75;;;30.87;44.02
58018;BME280;43810;50.860;19.226;2023-07-29T10:40:47;97994.91;;;30.98;45.77
58018;BME280;43810;50.860;19.226;2023-07-29T10:43:19;97994.63;;;31.16;42.64
58018;BME280;43810;50.860;19.226;2023-07-29T10:45:45;97988.72;;;31.23;44.69
58018;BME280;43810;50.860;19.226;2023-07-29T10:48:13;97990.31;;;31.09;44.37
58018;BME280;43810;50.860;19.226;2023-07-29T10:50:39;97991.50;;;30.88;44.54
58018;BME280;43810;50.860;19.226;2023-07-29T10:53:05;97986.53;;;31.27;42.91
58018;BME280;43810;50.860;19.226;2023-07-29T10:55:35;97988.22;;;31.45;43.86
58018;BME280;43810;50.860;19.226;2023-07-29T10:58:15;97982.63;;;31.34;40.26
58018;BME280;43810;50.860;19.226;2023-07-29T11:00:45;97983.91;;;31.38;43.82
58018;BME280;43810;50.860;19.226;2023-07-29T11:03:12;97976.91;;;31.37;42.13
58018;BME280;43810;50.860;19.226;2023-07-29T11:05:48;97979.38;;;31.35;42.25
58018;BME280;43810;50.860;19.226;2023-07-29T11:08:30;97975.78;;;31.49;41.62
58018;BME280;43810;50.860;19.226;2023-07-29T11:13:32;97976.81;;;30.91;41.21
58018;BME280;43810;50.860;19.226;2023-07-29T11:15:59;97971.66;;;30.78;43.89
58018;BME280;43810;50.860;19.226;2023-07-29T11:18:31;97969.34;;;30.92;44.69
58018;BME280;43810;50.860;19.226;2023-07-29T11:20:58;97968.13;;;31.13;44.09
58018;BME280;43810;50.860;19.226;2023-07-29T11:23:28;97967.34;;;30.92;43.19
58018;BME280;43810;50.860;19.226;2023-07-29T11:25:54;97964.75;;;30.33;44.56
58018;BME280;43810;50.860;19.226;2023-07-29T11:28:20;97969.69;;;30.44;42.17
58018;BME280;43810;50.860;19.226;2023-07-29T11:30:49;97956.84;;;30.50;44.78
58018;BME280;43810;50.860;19.226;2023-07-29T11:33:18;97959.59;;;30.70;44.99
58018;BME280;43810;50.860;19.226;2023-07-29T11:35:45;97949.81;;;30.84;46.76
58018;BME280;43810;50.860;19.226;2023-07-29T11:38:18;97942.72;;;30.77;44.48
58018;BME280;43810;50.860;19.226;2023-07-29T11:40:57;97940.56;;;31.02;41.77
58018;BME280;43810;50.860;19.226;2023-07-29T11:43:23;97938.78;;;31.19;44.38
58018;BME280;43810;50.860;19.226;2023-07-29T11:45:51;97942.69;;;31.33;44.61
58018;BME280;43810;50.860;19.226;2023-07-29T11:48:17;97934.84;;;31.25;42.01
58018;BME280;43810;50.860;19.226;2023-07-29T11:50:43;97942.88;;;31.29;42.82
58018;BME280;43810;50.860;19.226;2023-07-29T11:53:11;97940.66;;;31.53;43.79
58018;BME280;43810;50.860;19.226;2023-07-29T11:55:36;97925.09;;;30.99;43.35
58018;BME280;43810;50.860;19.226;2023-07-29T11:58:02;97925.56;;;30.97;45.34
58018;BME280;43810;50.860;19.226;2023-07-29T12:00:29;97931.50;;;31.16;43.48
58018;BME280;43810;50.860;19.226;2023-07-29T12:02:55;97928.88;;;31.27;44.09
58018;BME280;43810;50.860;19.226;2023-07-29T12:05:22;97933.81;;;31.43;44.77
58018;BME280;43810;50.860;19.226;2023-07-29T12:07:48;97923.41;;;31.27;43.26
58018;BME280;43810;50.860;19.226;2023-07-29T12:10:15;97920.09;;;31.43;41.16
58018;BME280;43810;50.860;19.226;2023-07-29T12:12:45;97917.97;;;31.53;39.37
58018;BME280;43810;50.860;19.226;2023-07-29T12:15:11;97920.72;;;31.84;41.00
58018;BME280;43810;50.860;19.226;2023-07-29T12:17:41;97907.72;;;31.79;40.71
58018;BME280;43810;50.860;19.226;2023-07-29T12:20:10;97913.31;;;31.65;41.65
58018;BME280;43810;50.860;19.226;2023-07-29T12:22:36;97908.09;;;31.98;38.76
58018;BME280;43810;50.860;19.226;2023-07-29T12:25:02;97919.13;;;32.35;42.01
58018;BME280;43810;50.860;19.226;2023-07-29T12:27:30;97910.84;;;32.29;41.07
58018;BME280;43810;50.860;19.226;2023-07-29T12:29:57;97905.28;;;32.61;42.32
58018;BME280;43810;50.860;19.226;2023-07-29T12:32:25;97909.22;;;32.54;40.74
58018;BME280;43810;50.860;19.226;2023-07-29T12:34:53;97898.78;;;32.21;40.49
58018;BME280;43810;50.860;19.226;2023-07-29T12:37:19;97894.28;;;31.87;42.93
58018;BME280;43810;50.860;19.226;2023-07-29T12:39:45;97888.66;;;32.02;40.84
58018;BME280;43810;50.860;19.226;2023-07-29T12:42:10;97900.44;;;32.45;39.49
58018;BME280;43810;50.860;19.226;2023-07-29T12:44:38;97892.38;;;32.78;42.55
58018;BME280;43810;50.860;19.226;2023-07-29T12:47:05;97883.41;;;32.89;39.91
58018;BME280;43810;50.860;19.226;2023-07-29T12:49:32;97889.56;;;32.67;40.37